Home > Products > Valid Products > TAF

000
FTUS43 KDVN 211900 AAA
TAFCID
TAF AMD
KCID 211957Z 2120/2218 08008KT P6SM SKC
     FM220000 10006KT P6SM SKC
     FM221400 13008KT P6SM SKC=



000
FTUS43 KDVN 211900 AAA
TAFDBQ
TAF AMD
KDBQ 211957Z 2120/2218 06007KT P6SM SKC
     FM220000 08006KT P6SM SKC
     FM221300 13007KT P6SM FEW020=



000
FTUS43 KDVN 211700
TAFMLI
TAF
KMLI 211720Z 2118/2218 05007KT P6SM SCT035
     FM220000 08005KT P6SM SKC
     FM221200 11004KT P6SM FEW020=



000
FTUS43 KDVN 211700
TAFBRL
TAF
KBRL 211720Z 2118/2218 05010KT P6SM FEW035
     FM220000 09005KT P6SM SKC
     FM221300 13007KT P6SM SKC=



000
FTUS43 KDVN 211700
TAFCID
TAF
KCID 211720Z 2118/2218 08008KT P6SM FEW035
     FM220000 10006KT P6SM SKC
     FM221400 13008KT P6SM SKC=



000
FTUS43 KDVN 211700
TAFDBQ
TAF
KDBQ 211720Z 2118/2218 08007KT P6SM SCT030
     FM220000 10006KT P6SM SKC
     FM221300 13007KT P6SM FEW020=



000
FTUS43 KDVN 211100
TAFMLI
TAF
KMLI 211120Z 2112/2212 03003KT P6SM SKC
     FM211600 06007KT P6SM SKC=



000
FTUS43 KDVN 211100
TAFCID
TAF
KCID 211120Z 2112/2212 02004KT P6SM SKC
     FM211600 08007KT P6SM SKC=



000
FTUS43 KDVN 211100
TAFCID
TAF
KCID 211120Z 2112/2212 02004KT P6SM SKC
     FM211600 08007KT P6SM SKC=



000
FTUS43 KDVN 211100
TAFMLI
TAF
KMLI 211120Z 2112/2212 03003KT P6SM SKC
     FM211600 06007KT P6SM SKC=



000
FTUS43 KDVN 211100
TAFBRL
TAF
KBRL 211120Z 2112/2212 01004KT P6SM SKC
     FM211600 06007KT P6SM SKC=



000
FTUS43 KDVN 211100
TAFDBQ
TAF
KDBQ 211120Z 2112/2212 03004KT P6SM FEW050
     FM211600 07007KT P6SM SKC=



000
FTUS43 KDVN 211100
TAFDBQ
TAF
KDBQ 211120Z 2112/2212 03004KT P6SM FEW050
     FM211600 07007KT P6SM SKC=



000
FTUS43 KDVN 211100
TAFBRL
TAF
KBRL 211120Z 2112/2212 01004KT P6SM SKC
     FM211600 06007KT P6SM SKC=



000
FTUS43 KDVN 210800 AAA
TAFMLI
TAF AMD
KMLI 210810Z 2108/2206 00000KT P6SM SKC
      TEMPO 2108/2112 3SM BR
     FM211600 07007KT P6SM SKC=



000
FTUS43 KDVN 210500
TAFMLI
TAF
KMLI 210520Z 2106/2206 03004KT P6SM SKC
     FM211600 07007KT P6SM SKC=



000
FTUS43 KDVN 210500
TAFDBQ
TAF
KDBQ 210520Z 2106/2206 05006KT P6SM FEW050
     FM211600 06007KT P6SM SKC=



000
FTUS43 KDVN 210500
TAFCID
TAF
KCID 210520Z 2106/2206 35004KT P6SM SKC
     FM211600 07007KT P6SM SKC=



000
FTUS43 KDVN 210500
TAFBRL
TAF
KBRL 210520Z 2106/2206 34005KT P6SM SKC
     FM211600 05007KT P6SM SKC=



000
FTUS43 KDVN 202300
TAFMLI
TAF
KMLI 202320Z 2100/2124 33007KT P6SM SKC
     FM211600 04006KT P6SM SKC=



000
FTUS43 KDVN 202300
TAFBRL
TAF
KBRL 202320Z 2100/2124 33006KT P6SM SKC
     FM211600 04007KT P6SM SKC=



000
FTUS43 KDVN 202300
TAFDBQ
TAF
KDBQ 202320Z 2100/2124 34007KT P6SM SKC
     FM211600 06007KT P6SM SKC=



000
FTUS43 KDVN 202300
TAFCID
TAF
KCID 202320Z 2100/2124 34007KT P6SM SKC
     FM211700 05007KT P6SM SKC=



000
FTUS43 KDVN 201800 AAA
TAFBRL
TAF AMD
KBRL 201858Z 2019/2118 32012G17KT P6SM FEW040
     FM202300 34006KT P6SM SKC
     FM210600 36005KT P6SM SKC
     FM211200 02005KT P6SM SKC
     FM211500 04006KT P6SM SKC=



000
FTUS43 KDVN 201700
TAFMLI
TAF
KMLI 201720Z 2018/2118 33013G18KT P6SM FEW040
     FM202300 33007KT P6SM SKC
     FM210600 36004KT P6SM SKC
     FM211200 02004KT P6SM FEW020
     FM211500 04006KT P6SM FEW020=



000
FTUS43 KDVN 201700
TAFCID
TAF
KCID 201720Z 2018/2118 33013G17KT P6SM FEW040
     FM202300 36007KT P6SM SKC
     FM211200 03006KT P6SM SKC
     FM211500 05007KT P6SM SKC=



000
FTUS43 KDVN 201700
TAFBRL
TAF
KBRL 201720Z 2018/2118 34012G17KT P6SM FEW040
     FM202300 34006KT P6SM SKC
     FM210600 36005KT P6SM SKC
     FM211200 02005KT P6SM SKC
     FM211500 04006KT P6SM SKC=



000
FTUS43 KDVN 201700
TAFDBQ
TAF
KDBQ 201720Z 2018/2118 33012G17KT P6SM SCT035
     FM202300 34007KT P6SM SCT035
     FM210600 01006KT P6SM SKC
     FM211100 03005KT P6SM SCT020
     FM211500 05007KT P6SM SCT020=



000
FTUS43 KDVN 201700 AAB
TAFBRL
TAF AMD
KBRL 201700Z 2017/2112 34012KT P6SM FEW050
     FM210000 34005KT P6SM SKC=



000
FTUS43 KDVN 201500 AAA
TAFBRL
TAF AMD
KBRL 201556Z 2016/2112 32012KT P6SM SKC
     FM201700 33011KT P6SM FEW050
     FM210000 34005KT P6SM SKC=



000
FTUS43 KDVN 201400 AAA
TAFMLI
TAF AMD
KMLI 201459Z 2015/2112 33012KT P6SM SKC
     FM201700 33012KT P6SM SCT050
     FM210000 34005KT P6SM SCT070=



000
FTUS43 KDVN 201400 AAA
TAFDBQ
TAF AMD
KDBQ 201458Z 2015/2112 34012KT P6SM SKC
     FM201700 33013KT P6SM BKN050
     FM210000 01006KT P6SM SCT050=



000
FTUS43 KDVN 201100
TAFMLI
TAF
KMLI 201120Z 2012/2112 30008KT P6SM SKC
     FM201700 33012KT P6SM SCT050
     FM210000 34005KT P6SM SCT070=



000
FTUS43 KDVN 201100
TAFCID
TAF
KCID 201120Z 2012/2112 31008KT P6SM SKC
     FM201600 33013KT P6SM SCT050
     FM210000 01005KT P6SM SKC=



000
FTUS43 KDVN 201100
TAFDBQ
TAF
KDBQ 201120Z 2012/2112 32010KT P6SM SKC
     FM201700 33013KT P6SM BKN050
     FM210000 01006KT P6SM SCT050=



000
FTUS43 KDVN 201100
TAFBRL
TAF
KBRL 201120Z 2012/2112 29007KT P6SM SKC
     FM201700 33011KT P6SM FEW050
     FM210000 34005KT P6SM SKC=



000
FTUS43 KDVN 200500
TAFMLI
TAF
KMLI 200520Z 2006/2106 23006KT P6SM SKC
     FM201700 32010KT P6SM SCT050
     FM210000 34005KT P6SM SKC=



000
FTUS43 KDVN 200500
TAFBRL
TAF
KBRL 200520Z 2006/2106 21006KT P6SM SKC
     FM201600 32010KT P6SM SKC
     FM210000 33005KT P6SM SKC=



000
FTUS43 KDVN 200500
TAFCID
TAF
KCID 200520Z 2006/2106 22007KT P6SM SKC
     FM201600 33012KT P6SM SCT050
     FM210000 36005KT P6SM SKC=



000
FTUS43 KDVN 200500
TAFDBQ
TAF
KDBQ 200520Z 2006/2106 22007KT P6SM SKC
     FM201700 33012KT P6SM BKN050
     FM210000 35006KT P6SM SCT050=



000
FTUS43 KDVN 192300
TAFCID
TAF
KCID 192320Z 2000/2024 20010KT P6SM SCT150
     FM200800 30008KT P6SM SKC
     FM201600 33012KT P6SM SKC=



000
FTUS43 KDVN 192300
TAFBRL
TAF
KBRL 192320Z 2000/2024 21007KT P6SM BKN090
     FM201000 31008KT P6SM SKC
     FM201700 32010KT P6SM SKC=



000
FTUS43 KDVN 192300
TAFDBQ
TAF
KDBQ 192320Z 2000/2024 20012KT P6SM SCT150
     FM200800 30008KT P6SM SCT150
     FM201600 33012KT P6SM SCT200=



000
FTUS43 KDVN 192300
TAFCID
TAF
KCID 192320Z 2000/2024 20010KT P6SM SCT150
     FM200800 30008KT P6SM SKC
     FM201600 33012KT P6SM SKC=



000
FTUS43 KDVN 192300
TAFMLI
TAF
KMLI 192320Z 2000/2024 22009KT P6SM SCT150
     FM200800 25007KT P6SM SCT200
     FM201600 32010KT P6SM SCT200=



000
FTUS43 KDVN 192300
TAFBRL
TAF
KBRL 192320Z 2000/2024 21007KT P6SM BKN090
     FM201000 31008KT P6SM SKC
     FM201700 32010KT P6SM SKC=



000
FTUS43 KDVN 192300
TAFMLI
TAF
KMLI 192320Z 2000/2024 22009KT P6SM SCT150
     FM200800 25007KT P6SM SCT200
     FM201600 32010KT P6SM SCT200=



000
FTUS43 KDVN 192300
TAFDBQ
TAF
KDBQ 192320Z 2000/2024 20012KT P6SM SCT150
     FM200800 30008KT P6SM SCT150
     FM201600 33012KT P6SM SCT200=



000
FTUS43 KDVN 191700
TAFMLI
TAF
KMLI 191730Z 1918/2018 22012G19KT P6SM BKN200
     FM200100 23008KT P6SM SCT250
     FM200900 28007KT P6SM FEW250=



000
FTUS43 KDVN 191700
TAFDBQ
TAF
KDBQ 191730Z 1918/2018 21015G22KT P6SM BKN150
     FM200000 23009KT P6SM BKN250
     FM200800 30008KT P6SM SKC=



000
FTUS43 KDVN 191700
TAFBRL
TAF
KBRL 191730Z 1918/2018 21013G18KT P6SM BKN200
     FM200100 21007KT P6SM BKN250
     FM200900 29007KT P6SM FEW250=



000
FTUS43 KDVN 191700
TAFCID
TAF
KCID 191730Z 1918/2018 21014G22KT P6SM BKN150
     FM200000 23008KT P6SM BKN250
     FM200800 30008KT P6SM SKC=



000
FTUS43 KDVN 191100
TAFDBQ
TAF
KDBQ 191140Z 1912/2012 20006KT P6SM SKC
     FM191700 21014G22KT P6SM BKN080
     FM200100 20008KT P6SM SKC=



000
FTUS43 KDVN 191100
TAFBRL
TAF
KBRL 191140Z 1912/2012 21003KT P6SM SKC
     FM191700 21010KT P6SM BKN120
     FM200200 21008KT P6SM SKC=



000
FTUS43 KDVN 191100
TAFMLI
TAF
KMLI 191140Z 1912/2012 00000KT P6SM SKC
     FM191700 22012G18KT P6SM BKN100
     FM200200 23008KT P6SM SKC=



000
FTUS43 KDVN 191100
TAFCID
TAF
KCID 191140Z 1912/2012 19004KT P6SM SKC
     FM191700 22014G22KT P6SM BKN080
     FM200000 24010KT P6SM SKC=



000
FTUS43 KDVN 190900 AAB
TAFCID
TAF AMD
KCID 190933Z 1910/2006 18003KT 1/2SM FG VV002
      TEMPO 1910/1914 4SM BR SCT002
     FM191400 21011G17KT P6SM SCT250
     FM200000 20008KT P6SM SKC=



000
FTUS43 KDVN 190800 AAC
TAFBRL
TAF AMD
KBRL 190834Z 1909/2006 18003KT 1/4SM FG VV002
      TEMPO 1909/1913 3SM BR SCT002
     FM191300 21009KT P6SM SCT250
     FM200000 20008KT P6SM SKC=



000
FTUS43 KDVN 190700 AAB
TAFBRL
TAF AMD
KBRL 190743Z 1908/2006 00000KT 1SM BR VV002
      TEMPO 1908/1911 3SM BR SCT002
     FM191400 21009KT P6SM SCT250
     FM200000 20008KT P6SM SKC=



000
FTUS43 KDVN 190700 AAA
TAFCID
TAF AMD
KCID 190742Z 1908/2006 16004KT 1 1/2SM BR SKC
      TEMPO 1908/1912 4SM BR
     FM191400 21011G17KT P6SM SCT250
     FM200000 20008KT P6SM SKC=



000
FTUS43 KDVN 190700 AAA
TAFBRL
TAF AMD
KBRL 190715Z 1907/2006 24003KT 3/4SM BR SKC
      TEMPO 1907/1911 3SM BR
     FM191400 21009KT P6SM SCT250
     FM200000 20008KT P6SM SKC=



000
FTUS43 KDVN 190500
TAFDBQ
TAF
KDBQ 190520Z 1906/2006 15003KT P6SM SCT250
     FM191500 21010G18KT P6SM SCT250
     FM200000 20008KT P6SM SKC=



000
FTUS43 KDVN 190500
TAFCID
TAF
KCID 190520Z 1906/2006 14003KT P6SM SCT250
     FM191500 21011G17KT P6SM SCT250
     FM200000 20008KT P6SM SKC=



000
FTUS43 KDVN 190500
TAFBRL
TAF
KBRL 190520Z 1906/2006 15003KT P6SM SCT250
     FM191500 21009KT P6SM SCT250
     FM200000 20008KT P6SM SKC=



000
FTUS43 KDVN 190500
TAFMLI
TAF
KMLI 190520Z 1906/2006 15003KT P6SM SCT250
     FM191500 22008KT P6SM SCT250
     FM200000 20008KT P6SM SKC=



000
FTUS43 KDVN 182300
TAFCID
TAF
KCID 182320Z 1900/1924 36003KT P6SM SKC
     FM191500 21011G17KT P6SM SCT250=



000
FTUS43 KDVN 182300
TAFBRL
TAF
KBRL 182320Z 1900/1924 35006KT P6SM OVC030
     FM190045 35003KT P6SM SKC
     FM191500 21009KT P6SM SCT250=



000
FTUS43 KDVN 182300
TAFDBQ
TAF
KDBQ 182320Z 1900/1924 35003KT P6SM SCT250
     FM191500 21010G18KT P6SM SCT250=



000
FTUS43 KDVN 182300
TAFMLI
TAF
KMLI 182320Z 1900/1924 36003KT P6SM BKN029
     FM190015 36003KT P6SM SKC
     FM191500 22008KT P6SM SCT250=



000
FTUS43 KDVN 182000 AAA
TAFMLI
TAF AMD
KMLI 182040Z 1821/1918 34008KT P6SM OVC030
     FM182300 VRB03KT P6SM SKC
     FM191500 22008KT P6SM SCT150=



000
FTUS43 KDVN 182000 AAB
TAFBRL
TAF AMD
KBRL 182038Z 1821/1918 32008KT P6SM BKN030
     FM182300 VRB03KT P6SM SKC
     FM191500 21009KT P6SM SCT150=



    US Dept of Commerce
    National Oceanic and Atmospheric Administration
    National Weather Service
    1325 East West Highway
    Silver Spring, MD 20910
    Page Author: NWS Internet Services Team
Disclaimer
Information Quality
Credits
Glossary
Privacy Policy
Freedom of Information Act (FOIA)
About Us
Career Opportunities